Big Creek, Idaho
Current Conditions -  °F | °C
As of 3:18 AM on Sunday 21 Dec 2014 (Local Time) from KMYL Reporting Station
Light Rain Light Rain  
Wind Chill: 29°   Ceiling: 1600
Heat Index: 34°   Visibility: 10mi
Dew Point: 32°   Wind: 6mph
Humidity: 92%   Direction: 140°SE
Pressure: 29.74"   Gusts: NA
Location:  45.13°N, 115.32°W
Report Text: KMYL 211018Z AUTO 14005KT 10SM -RA BKN016 OVC023 01/00 A2974 RMK AO2 RAB10SNE10 P0002 T00110000
Loading
Personal Weather Stations






























Interactive Weather Map New forecast layout! Learn more

10-Day Weather Forecast

Advertisements
Track Severe Weather on mobile